sensor_id;sensor_type;location;lat;lon;timestamp;temperature;humidity
3071;DHT22;1546;47.208;9.038;2022-08-21T00:01:31;17.50;99.90
3071;DHT22;1546;47.208;9.038;2022-08-21T00:04:17;17.40;99.90
3071;DHT22;1546;47.208;9.038;2022-08-21T00:07:04;17.30;99.90
3071;DHT22;1546;47.208;9.038;2022-08-21T00:09:50;17.20;99.90
3071;DHT22;1546;47.208;9.038;2022-08-21T00:12:35;17.10;99.90
3071;DHT22;1546;47.208;9.038;2022-08-21T00:15:25;17.20;99.90
3071;DHT22;1546;47.208;9.038;2022-08-21T00:18:11;17.10;99.90
3071;DHT22;1546;47.208;9.038;2022-08-21T00:20:57;17.00;99.90
3071;DHT22;1546;47.208;9.038;2022-08-21T00:23:44;17.00;99.90
3071;DHT22;1546;47.208;9.038;2022-08-21T00:26:29;17.10;99.90
3071;DHT22;1546;47.208;9.038;2022-08-21T00:29:16;17.10;99.90
3071;DHT22;1546;47.208;9.038;2022-08-21T00:32:02;17.20;99.90
3071;DHT22;1546;47.208;9.038;2022-08-21T00:34:47;17.20;99.90
3071;DHT22;1546;47.208;9.038;2022-08-21T00:37:33;17.10;99.90
3071;DHT22;1546;47.208;9.038;2022-08-21T00:40:22;17.20;99.90
3071;DHT22;1546;47.208;9.038;2022-08-21T00:43:10;17.20;99.90
3071;DHT22;1546;47.208;9.038;2022-08-21T00:45:57;17.30;99.90
3071;DHT22;1546;47.208;9.038;2022-08-21T00:48:43;17.30;99.90
3071;DHT22;1546;47.208;9.038;2022-08-21T00:51:38;17.30;99.90
3071;DHT22;1546;47.208;9.038;2022-08-21T00:54:26;17.20;99.90
3071;DHT22;1546;47.208;9.038;2022-08-21T00:57:16;17.20;99.90
3071;DHT22;1546;47.208;9.038;2022-08-21T01:00:07;17.20;99.90
3071;DHT22;1546;47.208;9.038;2022-08-21T01:02:53;17.30;99.90
3071;DHT22;1546;47.208;9.038;2022-08-21T01:05:40;17.30;99.90
3071;DHT22;1546;47.208;9.038;2022-08-21T01:08:28;17.40;99.90
3071;DHT22;1546;47.208;9.038;2022-08-21T01:11:15;17.30;99.90
3071;DHT22;1546;47.208;9.038;2022-08-21T01:14:03;17.10;99.90
3071;DHT22;1546;47.208;9.038;2022-08-21T01:16:51;17.00;99.90
3071;DHT22;1546;47.208;9.038;2022-08-21T01:19:37;17.10;99.90
3071;DHT22;1546;47.208;9.038;2022-08-21T01:22:24;17.10;99.90
3071;DHT22;1546;47.208;9.038;2022-08-21T01:25:13;17.10;99.90
3071;DHT22;1546;47.208;9.038;2022-08-21T01:28:04;17.10;99.90
3071;DHT22;1546;47.208;9.038;2022-08-21T01:30:53;17.00;99.90
3071;DHT22;1546;47.208;9.038;2022-08-21T01:33:39;16.80;99.90
3071;DHT22;1546;47.208;9.038;2022-08-21T01:36:26;16.70;99.90
3071;DHT22;1546;47.208;9.038;2022-08-21T01:39:14;16.60;99.90
3071;DHT22;1546;47.208;9.038;2022-08-21T01:41:59;16.60;99.90
3071;DHT22;1546;47.208;9.038;2022-08-21T01:44:45;16.60;99.90
3071;DHT22;1546;47.208;9.038;2022-08-21T01:47:31;16.60;99.90
3071;DHT22;1546;47.208;9.038;2022-08-21T01:50:18;16.70;99.90
3071;DHT22;1546;47.208;9.038;2022-08-21T01:53:04;16.70;99.90
3071;DHT22;1546;47.208;9.038;2022-08-21T01:55:51;16.70;99.90
3071;DHT22;1546;47.208;9.038;2022-08-21T01:58:37;16.70;99.90
3071;DHT22;1546;47.208;9.038;2022-08-21T02:01:22;16.70;99.90
3071;DHT22;1546;47.208;9.038;2022-08-21T02:04:09;16.70;99.90
3071;DHT22;1546;47.208;9.038;2022-08-21T02:06:55;16.70;99.90
3071;DHT22;1546;47.208;9.038;2022-08-21T02:09:41;16.70;99.90
3071;DHT22;1546;47.208;9.038;2022-08-21T02:12:28;16.80;99.90
3071;DHT22;1546;47.208;9.038;2022-08-21T02:15:13;16.80;99.90
3071;DHT22;1546;47.208;9.038;2022-08-21T02:18:00;16.90;99.90
3071;DHT22;1546;47.208;9.038;2022-08-21T02:20:48;16.80;99.90
3071;DHT22;1546;47.208;9.038;2022-08-21T02:23:34;16.70;99.90
3071;DHT22;1546;47.208;9.038;2022-08-21T02:26:19;16.60;99.90
3071;DHT22;1546;47.208;9.038;2022-08-21T02:29:07;16.70;99.90
3071;DHT22;1546;47.208;9.038;2022-08-21T02:31:52;16.70;99.90
3071;DHT22;1546;47.208;9.038;2022-08-21T02:34:38;16.70;99.90
3071;DHT22;1546;47.208;9.038;2022-08-21T02:37:24;16.80;99.90
3071;DHT22;1546;47.208;9.038;2022-08-21T02:40:10;16.80;99.90
3071;DHT22;1546;47.208;9.038;2022-08-21T02:42:56;16.70;99.90
3071;DHT22;1546;47.208;9.038;2022-08-21T02:45:44;16.60;99.90
3071;DHT22;1546;47.208;9.038;2022-08-21T02:48:31;16.50;99.90
3071;DHT22;1546;47.208;9.038;2022-08-21T02:51:19;16.40;99.90
3071;DHT22;1546;47.208;9.038;2022-08-21T02:54:06;16.40;99.90
3071;DHT22;1546;47.208;9.038;2022-08-21T02:56:52;16.50;99.90
3071;DHT22;1546;47.208;9.038;2022-08-21T02:59:38;16.30;99.90
3071;DHT22;1546;47.208;9.038;2022-08-21T03:02:25;16.30;99.90
3071;DHT22;1546;47.208;9.038;2022-08-21T03:05:11;16.40;99.90
3071;DHT22;1546;47.208;9.038;2022-08-21T03:07:58;16.40;99.90
3071;DHT22;1546;47.208;9.038;2022-08-21T03:10:46;16.50;99.90
3071;DHT22;1546;47.208;9.038;2022-08-21T03:13:32;16.50;99.90
3071;DHT22;1546;47.208;9.038;2022-08-21T03:16:18;16.50;99.90
3071;DHT22;1546;47.208;9.038;2022-08-21T03:19:06;16.40;99.90
3071;DHT22;1546;47.208;9.038;2022-08-21T03:21:51;16.30;99.90
3071;DHT22;1546;47.208;9.038;2022-08-21T03:24:37;16.40;99.90
3071;DHT22;1546;47.208;9.038;2022-08-21T03:27:23;16.50;99.90
3071;DHT22;1546;47.208;9.038;2022-08-21T03:30:11;16.40;99.90
3071;DHT22;1546;47.208;9.038;2022-08-21T03:32:57;16.50;99.90
3071;DHT22;1546;47.208;9.038;2022-08-21T03:35:54;16.40;99.90
3071;DHT22;1546;47.208;9.038;2022-08-21T03:38:41;16.50;99.90
3071;DHT22;1546;47.208;9.038;2022-08-21T03:41:27;16.50;99.90
3071;DHT22;1546;47.208;9.038;2022-08-21T03:44:13;16.50;99.90
3071;DHT22;1546;47.208;9.038;2022-08-21T03:46:58;16.40;99.90
3071;DHT22;1546;47.208;9.038;2022-08-21T03:49:44;16.20;99.90
3071;DHT22;1546;47.208;9.038;2022-08-21T03:52:31;16.10;99.90
3071;DHT22;1546;47.208;9.038;2022-08-21T03:55:17;16.00;99.90
3071;DHT22;1546;47.208;9.038;2022-08-21T03:58:02;15.90;99.90
3071;DHT22;1546;47.208;9.038;2022-08-21T04:00:50;15.80;99.90
3071;DHT22;1546;47.208;9.038;2022-08-21T04:03:37;15.80;99.90
3071;DHT22;1546;47.208;9.038;2022-08-21T04:06:22;15.70;99.90
3071;DHT22;1546;47.208;9.038;2022-08-21T04:09:10;15.70;99.90
3071;DHT22;1546;47.208;9.038;2022-08-21T04:11:56;15.70;99.90
3071;DHT22;1546;47.208;9.038;2022-08-21T04:14:41;15.70;99.90
3071;DHT22;1546;47.208;9.038;2022-08-21T04:17:27;15.70;99.90
3071;DHT22;1546;47.208;9.038;2022-08-21T04:20:13;15.70;99.90
3071;DHT22;1546;47.208;9.038;2022-08-21T04:22:58;15.70;99.90
3071;DHT22;1546;47.208;9.038;2022-08-21T04:25:45;15.70;99.90
3071;DHT22;1546;47.208;9.038;2022-08-21T04:28:31;15.80;99.90
3071;DHT22;1546;47.208;9.038;2022-08-21T04:31:17;15.80;99.90
3071;DHT22;1546;47.208;9.038;2022-08-21T04:34:03;15.90;99.90
3071;DHT22;1546;47.208;9.038;2022-08-21T04:36:48;16.00;99.90
3071;DHT22;1546;47.208;9.038;2022-08-21T04:39:34;16.10;99.90
3071;DHT22;1546;47.208;9.038;2022-08-21T04:42:21;16.00;99.90
3071;DHT22;1546;47.208;9.038;2022-08-21T04:45:07;16.10;99.90
3071;DHT22;1546;47.208;9.038;2022-08-21T04:47:54;15.90;99.90
3071;DHT22;1546;47.208;9.038;2022-08-21T04:50:48;15.80;99.90
3071;DHT22;1546;47.208;9.038;2022-08-21T04:53:38;15.80;99.90
3071;DHT22;1546;47.208;9.038;2022-08-21T04:56:28;15.90;99.90
3071;DHT22;1546;47.208;9.038;2022-08-21T04:59:20;15.90;99.90
3071;DHT22;1546;47.208;9.038;2022-08-21T05:02:07;15.80;99.90
3071;DHT22;1546;47.208;9.038;2022-08-21T05:04:54;15.70;99.90
3071;DHT22;1546;47.208;9.038;2022-08-21T05:07:41;15.70;99.90
3071;DHT22;1546;47.208;9.038;2022-08-21T05:10:28;15.80;99.90
3071;DHT22;1546;47.208;9.038;2022-08-21T05:13:13;16.00;99.90
3071;DHT22;1546;47.208;9.038;2022-08-21T05:16:00;16.00;99.90
3071;DHT22;1546;47.208;9.038;2022-08-21T05:18:46;16.10;99.90
3071;DHT22;1546;47.208;9.038;2022-08-21T05:21:32;16.10;99.90
3071;DHT22;1546;47.208;9.038;2022-08-21T05:24:17;16.10;99.90
3071;DHT22;1546;47.208;9.038;2022-08-21T05:27:03;16.10;99.90
3071;DHT22;1546;47.208;9.038;2022-08-21T05:29:50;16.20;99.90
3071;DHT22;1546;47.208;9.038;2022-08-21T05:32:37;16.10;99.90
3071;DHT22;1546;47.208;9.038;2022-08-21T05:35:24;16.10;99.90
3071;DHT22;1546;47.208;9.038;2022-08-21T05:38:09;16.10;99.90
3071;DHT22;1546;47.208;9.038;2022-08-21T05:40:55;15.90;99.90
3071;DHT22;1546;47.208;9.038;2022-08-21T05:43:41;16.00;99.90
3071;DHT22;1546;47.208;9.038;2022-08-21T05:46:26;16.20;99.90
3071;DHT22;1546;47.208;9.038;2022-08-21T05:49:13;16.20;99.90
3071;DHT22;1546;47.208;9.038;2022-08-21T05:51:59;16.20;99.90
3071;DHT22;1546;47.208;9.038;2022-08-21T05:54:44;16.20;99.90
3071;DHT22;1546;47.208;9.038;2022-08-21T05:57:30;16.20;99.90
3071;DHT22;1546;47.208;9.038;2022-08-21T06:00:16;16.20;99.90
3071;DHT22;1546;47.208;9.038;2022-08-21T06:03:01;16.10;99.90
3071;DHT22;1546;47.208;9.038;2022-08-21T06:05:48;16.10;99.90
3071;DHT22;1546;47.208;9.038;2022-08-21T06:08:34;16.10;99.90
3071;DHT22;1546;47.208;9.038;2022-08-21T06:11:20;16.30;99.90
3071;DHT22;1546;47.208;9.038;2022-08-21T06:14:05;16.60;99.90
3071;DHT22;1546;47.208;9.038;2022-08-21T06:16:51;16.90;99.90
3071;DHT22;1546;47.208;9.038;2022-08-21T06:19:37;17.20;99.90
3071;DHT22;1546;47.208;9.038;2022-08-21T06:22:24;17.40;99.90
3071;DHT22;1546;47.208;9.038;2022-08-21T06:25:09;17.60;99.90
3071;DHT22;1546;47.208;9.038;2022-08-21T06:28:00;17.80;99.90
3071;DHT22;1546;47.208;9.038;2022-08-21T06:30:46;17.90;99.90
3071;DHT22;1546;47.208;9.038;2022-08-21T06:33:32;18.10;99.90
3071;DHT22;1546;47.208;9.038;2022-08-21T06:36:18;18.20;99.90
3071;DHT22;1546;47.208;9.038;2022-08-21T06:39:06;18.40;99.90
3071;DHT22;1546;47.208;9.038;2022-08-21T06:41:51;18.70;99.90
3071;DHT22;1546;47.208;9.038;2022-08-21T06:44:37;18.90;99.90
3071;DHT22;1546;47.208;9.038;2022-08-21T06:47:22;19.00;99.90
3071;DHT22;1546;47.208;9.038;2022-08-21T06:50:09;19.20;99.90
3071;DHT22;1546;47.208;9.038;2022-08-21T06:52:59;19.30;99.90
3071;DHT22;1546;47.208;9.038;2022-08-21T06:55:47;19.40;99.90
3071;DHT22;1546;47.208;9.038;2022-08-21T06:58:33;19.60;99.90
3071;DHT22;1546;47.208;9.038;2022-08-21T07:01:20;19.80;99.90
3071;DHT22;1546;47.208;9.038;2022-08-21T07:04:06;20.00;99.90
3071;DHT22;1546;47.208;9.038;2022-08-21T07:06:52;20.10;99.90
3071;DHT22;1546;47.208;9.038;2022-08-21T07:09:38;20.20;99.90
3071;DHT22;1546;47.208;9.038;2022-08-21T07:12:25;20.30;99.90
3071;DHT22;1546;47.208;9.038;2022-08-21T07:15:11;20.50;99.90
3071;DHT22;1546;47.208;9.038;2022-08-21T07:17:57;20.50;99.90
3071;DHT22;1546;47.208;9.038;2022-08-21T07:20:43;20.60;99.90
3071;DHT22;1546;47.208;9.038;2022-08-21T07:23:31;20.70;99.90
3071;DHT22;1546;47.208;9.038;2022-08-21T07:26:19;20.70;99.90
3071;DHT22;1546;47.208;9.038;2022-08-21T07:29:07;20.70;99.90
3071;DHT22;1546;47.208;9.038;2022-08-21T07:31:52;20.70;99.90
3071;DHT22;1546;47.208;9.038;2022-08-21T07:34:38;20.90;99.90
3071;DHT22;1546;47.208;9.038;2022-08-21T07:37:24;21.10;99.90
3071;DHT22;1546;47.208;9.038;2022-08-21T07:40:10;21.20;99.90
3071;DHT22;1546;47.208;9.038;2022-08-21T07:42:56;21.20;99.90
3071;DHT22;1546;47.208;9.038;2022-08-21T07:45:43;21.20;99.90
3071;DHT22;1546;47.208;9.038;2022-08-21T07:48:28;21.30;99.90
3071;DHT22;1546;47.208;9.038;2022-08-21T07:51:15;21.30;99.90
3071;DHT22;1546;47.208;9.038;2022-08-21T07:54:01;21.50;99.90
3071;DHT22;1546;47.208;9.038;2022-08-21T07:56:46;21.60;99.90
3071;DHT22;1546;47.208;9.038;2022-08-21T07:59:32;21.40;99.90
3071;DHT22;1546;47.208;9.038;2022-08-21T08:02:24;21.50;99.90
3071;DHT22;1546;47.208;9.038;2022-08-21T08:05:10;21.70;99.90
3071;DHT22;1546;47.208;9.038;2022-08-21T08:07:56;21.70;99.90
3071;DHT22;1546;47.208;9.038;2022-08-21T08:10:42;21.70;99.90
3071;DHT22;1546;47.208;9.038;2022-08-21T08:13:28;22.00;99.90
3071;DHT22;1546;47.208;9.038;2022-08-21T08:16:14;22.20;99.90
3071;DHT22;1546;47.208;9.038;2022-08-21T08:19:01;22.30;99.90
3071;DHT22;1546;47.208;9.038;2022-08-21T08:21:47;22.30;99.90
3071;DHT22;1546;47.208;9.038;2022-08-21T08:24:38;22.20;99.90
3071;DHT22;1546;47.208;9.038;2022-08-21T08:27:24;22.10;99.90
3071;DHT22;1546;47.208;9.038;2022-08-21T08:30:12;22.00;99.90
3071;DHT22;1546;47.208;9.038;2022-08-21T08:32:58;22.10;99.90
3071;DHT22;1546;47.208;9.038;2022-08-21T08:35:48;22.50;99.90
3071;DHT22;1546;47.208;9.038;2022-08-21T08:38:34;22.60;99.90
3071;DHT22;1546;47.208;9.038;2022-08-21T08:41:20;22.40;99.90
3071;DHT22;1546;47.208;9.038;2022-08-21T08:44:07;22.60;99.90
3071;DHT22;1546;47.208;9.038;2022-08-21T08:46:53;22.80;99.90
3071;DHT22;1546;47.208;9.038;2022-08-21T08:49:49;23.00;99.90
3071;DHT22;1546;47.208;9.038;2022-08-21T08:52:45;23.10;99.90
3071;DHT22;1546;47.208;9.038;2022-08-21T08:55:35;23.30;99.90
3071;DHT22;1546;47.208;9.038;2022-08-21T08:58:24;23.40;99.90
3071;DHT22;1546;47.208;9.038;2022-08-21T09:01:13;23.40;99.90
3071;DHT22;1546;47.208;9.038;2022-08-21T09:04:00;23.40;99.90
3071;DHT22;1546;47.208;9.038;2022-08-21T09:06:55;23.30;99.90
3071;DHT22;1546;47.208;9.038;2022-08-21T09:09:55;23.40;99.90
3071;DHT22;1546;47.208;9.038;2022-08-21T09:12:50;23.30;99.90
3071;DHT22;1546;47.208;9.038;2022-08-21T09:15:53;23.10;99.90
3071;DHT22;1546;47.208;9.038;2022-08-21T09:18:45;23.20;99.90
3071;DHT22;1546;47.208;9.038;2022-08-21T09:21:40;23.40;99.90
3071;DHT22;1546;47.208;9.038;2022-08-21T09:24:32;23.60;99.90
3071;DHT22;1546;47.208;9.038;2022-08-21T09:27:20;23.40;99.90
3071;DHT22;1546;47.208;9.038;2022-08-21T09:30:08;23.30;99.90
3071;DHT22;1546;47.208;9.038;2022-08-21T09:32:55;23.50;99.90
3071;DHT22;1546;47.208;9.038;2022-08-21T09:35:50;23.40;99.90
3071;DHT22;1546;47.208;9.038;2022-08-21T09:38:37;23.40;99.90
3071;DHT22;1546;47.208;9.038;2022-08-21T09:41:27;23.50;99.90
3071;DHT22;1546;47.208;9.038;2022-08-21T09:44:25;23.80;99.90
3071;DHT22;1546;47.208;9.038;2022-08-21T09:47:12;24.10;99.90
3071;DHT22;1546;47.208;9.038;2022-08-21T09:50:07;24.10;99.90
3071;DHT22;1546;47.208;9.038;2022-08-21T09:52:57;24.20;99.90
3071;DHT22;1546;47.208;9.038;2022-08-21T09:55:49;24.30;99.90
3071;DHT22;1546;47.208;9.038;2022-08-21T09:58:52;24.50;99.70
3071;DHT22;1546;47.208;9.038;2022-08-21T10:01:44;24.60;99.90
3071;DHT22;1546;47.208;9.038;2022-08-21T10:04:31;24.60;99.30
3071;DHT22;1546;47.208;9.038;2022-08-21T10:07:20;24.60;99.20
3071;DHT22;1546;47.208;9.038;2022-08-21T10:10:14;24.80;99.80
3071;DHT22;1546;47.208;9.038;2022-08-21T10:13:06;24.50;99.40
3071;DHT22;1546;47.208;9.038;2022-08-21T10:16:02;24.70;99.90
3071;DHT22;1546;47.208;9.038;2022-08-21T10:19:01;25.00;99.90
3071;DHT22;1546;47.208;9.038;2022-08-21T10:22:00;25.20;98.90
3071;DHT22;1546;47.208;9.038;2022-08-21T10:24:54;25.40;98.30
3071;DHT22;1546;47.208;9.038;2022-08-21T10:27:49;25.60;97.80
3071;DHT22;1546;47.208;9.038;2022-08-21T10:30:52;25.90;98.80
3071;DHT22;1546;47.208;9.038;2022-08-21T10:33:46;26.00;98.50
3071;DHT22;1546;47.208;9.038;2022-08-21T10:36:46;26.10;97.40
3071;DHT22;1546;47.208;9.038;2022-08-21T10:39:34;26.40;97.80
3071;DHT22;1546;47.208;9.038;2022-08-21T10:42:29;26.60;98.00
3071;DHT22;1546;47.208;9.038;2022-08-21T10:45:28;26.60;98.20
3071;DHT22;1546;47.208;9.038;2022-08-21T10:48:22;26.70;96.00
3071;DHT22;1546;47.208;9.038;2022-08-21T10:51:15;26.80;97.20
3071;DHT22;1546;47.208;9.038;2022-08-21T10:54:07;26.80;96.20
3071;DHT22;1546;47.208;9.038;2022-08-21T10:57:00;26.70;96.50
3071;DHT22;1546;47.208;9.038;2022-08-21T10:59:50;26.40;96.60
3071;DHT22;1546;47.208;9.038;2022-08-21T11:02:40;27.20;96.30
3071;DHT22;1546;47.208;9.038;2022-08-21T11:05:30;28.40;95.50
3071;DHT22;1546;47.208;9.038;2022-08-21T11:08:21;29.90;94.20
3071;DHT22;1546;47.208;9.038;2022-08-21T11:11:12;30.50;90.40
3071;DHT22;1546;47.208;9.038;2022-08-21T11:14:02;30.60;91.00
3071;DHT22;1546;47.208;9.038;2022-08-21T11:16:56;31.60;88.40
3071;DHT22;1546;47.208;9.038;2022-08-21T11:19:47;32.10;84.40
3071;DHT22;1546;47.208;9.038;2022-08-21T11:22:39;32.40;86.30
3071;DHT22;1546;47.208;9.038;2022-08-21T11:25:29;32.70;83.10
3071;DHT22;1546;47.208;9.038;2022-08-21T11:28:22;31.70;82.40
3071;DHT22;1546;47.208;9.038;2022-08-21T11:31:26;31.70;83.50
3071;DHT22;1546;47.208;9.038;2022-08-21T11:34:26;32.00;82.20
3071;DHT22;1546;47.208;9.038;2022-08-21T11:37:21;32.80;83.00
3071;DHT22;1546;47.208;9.038;2022-08-21T11:40:27;32.80;77.30
3071;DHT22;1546;47.208;9.038;2022-08-21T11:43:21;32.60;79.50
3071;DHT22;1546;47.208;9.038;2022-08-21T11:46:25;33.30;78.90
3071;DHT22;1546;47.208;9.038;2022-08-21T11:49:25;34.10;75.20
3071;DHT22;1546;47.208;9.038;2022-08-21T11:52:18;33.70;72.70
3071;DHT22;1546;47.208;9.038;2022-08-21T11:55:07;33.20;75.20
3071;DHT22;1546;47.208;9.038;2022-08-21T11:57:58;33.50;74.70
3071;DHT22;1546;47.208;9.038;2022-08-21T12:00:51;33.20;75.50
3071;DHT22;1546;47.208;9.038;2022-08-21T12:03:39;32.70;77.40
3071;DHT22;1546;47.208;9.038;2022-08-21T12:06:31;33.30;75.80
3071;DHT22;1546;47.208;9.038;2022-08-21T12:09:32;34.20;72.90
3071;DHT22;1546;47.208;9.038;2022-08-21T12:12:24;34.50;71.30
3071;DHT22;1546;47.208;9.038;2022-08-21T12:15:23;34.40;69.80
3071;DHT22;1546;47.208;9.038;2022-08-21T12:18:22;34.00;73.10
3071;DHT22;1546;47.208;9.038;2022-08-21T12:21:21;34.20;68.70
3071;DHT22;1546;47.208;9.038;2022-08-21T12:24:17;34.10;68.40
3071;DHT22;1546;47.208;9.038;2022-08-21T12:27:18;34.00;72.20
3071;DHT22;1546;47.208;9.038;2022-08-21T12:30:18;34.50;69.60
3071;DHT22;1546;47.208;9.038;2022-08-21T12:33:06;34.40;72.40
3071;DHT22;1546;47.208;9.038;2022-08-21T12:36:09;35.30;67.20
3071;DHT22;1546;47.208;9.038;2022-08-21T12:38:58;36.40;64.90
3071;DHT22;1546;47.208;9.038;2022-08-21T12:41:49;36.60;63.40
3071;DHT22;1546;47.208;9.038;2022-08-21T12:44:40;36.60;62.40
3071;DHT22;1546;47.208;9.038;2022-08-21T12:47:31;37.20;60.50
3071;DHT22;1546;47.208;9.038;2022-08-21T12:50:21;37.30;59.00
3071;DHT22;1546;47.208;9.038;2022-08-21T12:53:17;36.80;58.30
3071;DHT22;1546;47.208;9.038;2022-08-21T12:56:10;35.20;59.60
3071;DHT22;1546;47.208;9.038;2022-08-21T12:58:57;34.40;59.80
3071;DHT22;1546;47.208;9.038;2022-08-21T13:01:49;33.60;59.80
3071;DHT22;1546;47.208;9.038;2022-08-21T13:04:37;34.10;63.50
3071;DHT22;1546;47.208;9.038;2022-08-21T13:07:27;34.70;61.70
3071;DHT22;1546;47.208;9.038;2022-08-21T13:10:19;35.20;60.70
3071;DHT22;1546;47.208;9.038;2022-08-21T13:13:09;34.90;55.60
3071;DHT22;1546;47.208;9.038;2022-08-21T13:15:59;34.20;57.30
3071;DHT22;1546;47.208;9.038;2022-08-21T13:18:54;33.10;58.90
3071;DHT22;1546;47.208;9.038;2022-08-21T13:21:42;32.10;60.10
3071;DHT22;1546;47.208;9.038;2022-08-21T13:24:29;31.80;61.40
3071;DHT22;1546;47.208;9.038;2022-08-21T13:27:26;31.00;61.00
3071;DHT22;1546;47.208;9.038;2022-08-21T13:30:17;30.30;61.00
3071;DHT22;1546;47.208;9.038;2022-08-21T13:33:05;29.80;64.60
3071;DHT22;1546;47.208;9.038;2022-08-21T13:35:59;29.60;71.00
3071;DHT22;1546;47.208;9.038;2022-08-21T13:38:46;30.20;70.40
3071;DHT22;1546;47.208;9.038;2022-08-21T13:41:35;32.20;67.40
3071;DHT22;1546;47.208;9.038;2022-08-21T13:44:31;33.90;60.80
3071;DHT22;1546;47.208;9.038;2022-08-21T13:47:18;34.80;57.90
3071;DHT22;1546;47.208;9.038;2022-08-21T13:50:04;33.80;58.50
3071;DHT22;1546;47.208;9.038;2022-08-21T13:52:58;32.80;59.20
3071;DHT22;1546;47.208;9.038;2022-08-21T13:55:44;31.00;61.90
3071;DHT22;1546;47.208;9.038;2022-08-21T13:58:31;29.60;64.30
3071;DHT22;1546;47.208;9.038;2022-08-21T14:01:21;28.60;66.90
3071;DHT22;1546;47.208;9.038;2022-08-21T14:04:18;28.00;69.10
3071;DHT22;1546;47.208;9.038;2022-08-21T14:07:15;27.40;69.80
3071;DHT22;1546;47.208;9.038;2022-08-21T14:10:04;27.20;71.00
3071;DHT22;1546;47.208;9.038;2022-08-21T14:12:52;27.10;74.40
3071;DHT22;1546;47.208;9.038;2022-08-21T14:15:39;26.80;73.90
3071;DHT22;1546;47.208;9.038;2022-08-21T14:18:26;26.90;73.70
3071;DHT22;1546;47.208;9.038;2022-08-21T14:21:12;26.70;72.60
3071;DHT22;1546;47.208;9.038;2022-08-21T14:24:09;26.60;80.90
3071;DHT22;1546;47.208;9.038;2022-08-21T14:26:56;26.50;85.20
3071;DHT22;1546;47.208;9.038;2022-08-21T14:29:43;26.40;85.60
3071;DHT22;1546;47.208;9.038;2022-08-21T14:32:36;26.30;86.80
3071;DHT22;1546;47.208;9.038;2022-08-21T14:35:23;26.20;83.20
3071;DHT22;1546;47.208;9.038;2022-08-21T14:38:13;26.20;79.40
3071;DHT22;1546;47.208;9.038;2022-08-21T14:41:03;26.20;84.60
3071;DHT22;1546;47.208;9.038;2022-08-21T14:43:50;26.40;88.80
3071;DHT22;1546;47.208;9.038;2022-08-21T14:46:36;26.60;85.90
3071;DHT22;1546;47.208;9.038;2022-08-21T14:49:23;26.90;80.50
3071;DHT22;1546;47.208;9.038;2022-08-21T14:52:11;27.00;79.90
3071;DHT22;1546;47.208;9.038;2022-08-21T14:54:56;27.00;79.60
3071;DHT22;1546;47.208;9.038;2022-08-21T14:57:45;26.80;77.40
3071;DHT22;1546;47.208;9.038;2022-08-21T15:00:31;26.50;80.20
3071;DHT22;1546;47.208;9.038;2022-08-21T15:03:17;26.30;81.40
3071;DHT22;1546;47.208;9.038;2022-08-21T15:06:04;26.20;84.00
3071;DHT22;1546;47.208;9.038;2022-08-21T15:08:51;26.10;84.70
3071;DHT22;1546;47.208;9.038;2022-08-21T15:11:36;25.80;83.90
3071;DHT22;1546;47.208;9.038;2022-08-21T15:14:25;25.70;84.70
3071;DHT22;1546;47.208;9.038;2022-08-21T15:17:11;25.70;84.60
3071;DHT22;1546;47.208;9.038;2022-08-21T15:19:57;25.90;87.60
3071;DHT22;1546;47.208;9.038;2022-08-21T15:22:42;26.10;85.40
3071;DHT22;1546;47.208;9.038;2022-08-21T15:25:29;26.10;79.60
3071;DHT22;1546;47.208;9.038;2022-08-21T15:28:16;26.10;78.40
3071;DHT22;1546;47.208;9.038;2022-08-21T15:31:02;26.10;80.30
3071;DHT22;1546;47.208;9.038;2022-08-21T15:33:48;26.30;82.20
3071;DHT22;1546;47.208;9.038;2022-08-21T15:36:33;26.10;77.40
3071;DHT22;1546;47.208;9.038;2022-08-21T15:39:19;25.90;77.50
3071;DHT22;1546;47.208;9.038;2022-08-21T15:42:06;25.70;77.40
3071;DHT22;1546;47.208;9.038;2022-08-21T15:44:53;25.60;87.80
3071;DHT22;1546;47.208;9.038;2022-08-21T15:47:43;25.50;85.50
3071;DHT22;1546;47.208;9.038;2022-08-21T15:50:29;25.60;82.70
3071;DHT22;1546;47.208;9.038;2022-08-21T15:53:15;25.90;81.90
3071;DHT22;1546;47.208;9.038;2022-08-21T15:56:02;26.30;80.20
3071;DHT22;1546;47.208;9.038;2022-08-21T15:58:49;26.40;75.80
3071;DHT22;1546;47.208;9.038;2022-08-21T16:01:36;26.50;76.30
3071;DHT22;1546;47.208;9.038;2022-08-21T16:04:25;26.60;78.40
3071;DHT22;1546;47.208;9.038;2022-08-21T16:07:11;26.50;75.80
3071;DHT22;1546;47.208;9.038;2022-08-21T16:09:57;26.40;73.40
3071;DHT22;1546;47.208;9.038;2022-08-21T16:12:45;26.30;73.10
3071;DHT22;1546;47.208;9.038;2022-08-21T16:15:33;26.40;73.30
3071;DHT22;1546;47.208;9.038;2022-08-21T16:18:20;26.50;73.10
3071;DHT22;1546;47.208;9.038;2022-08-21T16:21:06;26.80;77.00
3071;DHT22;1546;47.208;9.038;2022-08-21T16:23:51;26.90;74.80
3071;DHT22;1546;47.208;9.038;2022-08-21T16:26:37;26.90;72.30
3071;DHT22;1546;47.208;9.038;2022-08-21T16:29:23;26.80;73.00
3071;DHT22;1546;47.208;9.038;2022-08-21T16:32:13;26.80;72.60
3071;DHT22;1546;47.208;9.038;2022-08-21T16:34:59;26.90;73.80
3071;DHT22;1546;47.208;9.038;2022-08-21T16:37:46;26.90;71.80
3071;DHT22;1546;47.208;9.038;2022-08-21T16:40:31;26.80;72.20
3071;DHT22;1546;47.208;9.038;2022-08-21T16:43:16;26.70;74.80
3071;DHT22;1546;47.208;9.038;2022-08-21T16:46:02;26.70;73.90
3071;DHT22;1546;47.208;9.038;2022-08-21T16:48:52;26.50;74.90
3071;DHT22;1546;47.208;9.038;2022-08-21T16:51:37;26.30;75.40
3071;DHT22;1546;47.208;9.038;2022-08-21T16:54:23;26.10;75.10
3071;DHT22;1546;47.208;9.038;2022-08-21T16:57:09;26.30;78.00
3071;DHT22;1546;47.208;9.038;2022-08-21T16:59:54;26.10;77.50
3071;DHT22;1546;47.208;9.038;2022-08-21T17:02:44;25.90;77.50
3071;DHT22;1546;47.208;9.038;2022-08-21T17:05:31;25.60;82.30
3071;DHT22;1546;47.208;9.038;2022-08-21T17:08:17;25.30;79.60
3071;DHT22;1546;47.208;9.038;2022-08-21T17:11:04;25.20;81.80
3071;DHT22;1546;47.208;9.038;2022-08-21T17:13:50;25.00;83.30
3071;DHT22;1546;47.208;9.038;2022-08-21T17:16:36;24.90;84.50
3071;DHT22;1546;47.208;9.038;2022-08-21T17:19:22;24.70;85.70
3071;DHT22;1546;47.208;9.038;2022-08-21T17:22:10;24.50;86.00
3071;DHT22;1546;47.208;9.038;2022-08-21T17:24:55;24.30;87.20
3071;DHT22;1546;47.208;9.038;2022-08-21T17:27:41;24.10;88.70
3071;DHT22;1546;47.208;9.038;2022-08-21T17:30:27;23.80;89.10
3071;DHT22;1546;47.208;9.038;2022-08-21T17:33:13;23.50;90.10
3071;DHT22;1546;47.208;9.038;2022-08-21T17:35:59;23.20;91.20
3071;DHT22;1546;47.208;9.038;2022-08-21T17:38:47;22.90;91.90
3071;DHT22;1546;47.208;9.038;2022-08-21T17:41:33;22.60;92.70
3071;DHT22;1546;47.208;9.038;2022-08-21T17:44:19;22.50;93.20
3071;DHT22;1546;47.208;9.038;2022-08-21T17:47:06;22.30;93.90
3071;DHT22;1546;47.208;9.038;2022-08-21T17:49:52;22.10;94.50
3071;DHT22;1546;47.208;9.038;2022-08-21T17:52:38;22.00;94.40
3071;DHT22;1546;47.208;9.038;2022-08-21T17:55:29;22.00;95.10
3071;DHT22;1546;47.208;9.038;2022-08-21T17:58:14;21.80;95.70
3071;DHT22;1546;47.208;9.038;2022-08-21T18:01:00;21.70;96.50
3071;DHT22;1546;47.208;9.038;2022-08-21T18:03:48;21.50;96.90
3071;DHT22;1546;47.208;9.038;2022-08-21T18:06:34;21.40;97.50
3071;DHT22;1546;47.208;9.038;2022-08-21T18:09:19;21.30;97.70
3071;DHT22;1546;47.208;9.038;2022-08-21T18:12:09;21.10;97.90
3071;DHT22;1546;47.208;9.038;2022-08-21T18:14:54;21.10;98.60
3071;DHT22;1546;47.208;9.038;2022-08-21T18:17:41;21.10;98.70
3071;DHT22;1546;47.208;9.038;2022-08-21T18:20:28;21.00;98.70